Time;durP1;ratioP1;P1;durP2;ratioP2;P2;SDS_P1;SDS_P2;PMS_P1;PMS_P2;Temp;Humidity;BMP_temperature;BMP_pressure;BME280_temperature;BME280_humidity;BME280_pressure;Samples;Min_cycle;Max_cycle;Signal;HPM_P1;HPM_P2
2020/12/23 00:00:14;;;;;;;8.45;2.35;;;;;;;8.98;68.42;100999.25;687233;28;44383;-65
2020/12/23 00:00:35;;;;;;;9.98;2.35;;;;;;;8.98;68.56;101001.94;687940;28;69423;-65
2020/12/23 00:00:57;;;;;;;9.07;2.35;;;;;;;8.98;68.63;100997.41;690706;28;5378;-66
2020/12/23 00:01:19;;;;;;;11.15;3.53;;;;;;;8.98;68.46;101004.63;691351;28;46321;-66
2020/12/23 00:01:40;;;;;;;9.80;3.00;;;;;;;8.98;68.74;101000.09;692092;28;35513;-66
2020/12/23 00:02:02;;;;;;;11.82;2.63;;;;;;;8.97;68.89;101001.09;692374;28;22384;-65
2020/12/23 00:02:23;;;;;;;11.85;2.63;;;;;;;8.97;68.83;100995.72;691800;28;40563;-66
2020/12/23 00:02:45;;;;;;;14.25;2.63;;;;;;;8.98;68.84;100999.25;691985;28;24385;-65
2020/12/23 00:03:06;;;;;;;10.30;2.50;;;;;;;8.98;68.60;100994.72;691269;28;46398;-65
2020/12/23 00:03:28;;;;;;;10.60;2.47;;;;;;;8.97;68.47;100995.72;692257;28;22427;-64
2020/12/23 00:03:49;;;;;;;9.57;2.75;;;;;;;8.98;68.75;100993.84;692461;28;22450;-66
2020/12/23 00:04:10;;;;;;;5.70;2.17;;;;;;;8.98;68.53;101000.09;691502;28;45218;-65
2020/12/23 00:04:32;;;;;;;5.10;2.10;;;;;;;8.99;68.99;101001.78;692736;28;14847;-66
2020/12/23 00:04:53;;;;;;;10.15;2.50;;;;;;;8.98;68.58;101007.31;691601;28;46235;-65
2020/12/23 00:05:15;;;;;;;10.05;2.28;;;;;;;8.97;68.71;101005.66;692098;28;22170;-65
2020/12/23 00:05:36;;;;;;;13.57;2.70;;;;;;;8.97;68.43;101003.81;691346;28;46171;-65
2020/12/23 00:05:58;;;;;;;10.05;2.60;;;;;;;8.98;68.52;101007.31;692214;28;21491;-64
2020/12/23 00:06:19;;;;;;;10.75;2.65;;;;;;;8.98;68.43;101004.63;691460;28;45289;-66
2020/12/23 00:06:41;;;;;;;6.80;2.08;;;;;;;8.98;68.72;101005.50;692301;28;23218;-65
2020/12/23 00:07:05;;;;;;;7.07;2.13;;;;;;;8.99;68.70;101009.88;692454;28;21560;-66
2020/12/23 00:07:27;;;;;;;6.63;2.15;;;;;;;8.98;68.59;101008.19;688866;28;114938;-66
2020/12/23 00:07:50;;;;;;;6.18;2.20;;;;;;;8.98;68.41;101015.41;693035;28;926;-66
2020/12/23 00:08:11;;;;;;;9.13;2.40;;;;;;;8.96;68.16;101010.19;691464;28;47598;-66
2020/12/23 00:08:33;;;;;;;6.80;2.30;;;;;;;8.97;67.88;101011.88;692408;28;22398;-65
2020/12/23 00:08:54;;;;;;;8.35;2.17;;;;;;;8.97;67.94;101008.34;692212;28;17663;-66
2020/12/23 00:09:16;;;;;;;7.20;2.00;;;;;;;8.97;67.83;101005.66;687834;28;46384;-66
2020/12/23 00:09:37;;;;;;;8.95;2.10;;;;;;;8.97;67.76;101011.03;689127;28;23490;-65
2020/12/23 00:09:58;;;;;;;8.40;2.00;;;;;;;8.97;67.70;101014.56;689520;28;22386;-66
2020/12/23 00:10:20;;;;;;;8.35;2.00;;;;;;;8.97;67.61;101011.03;688899;28;22346;-66
2020/12/23 00:10:41;;;;;;;10.07;2.35;;;;;;;8.96;67.42;101009.34;689183;28;40747;-66
2020/12/23 00:11:03;;;;;;;5.93;1.90;;;;;;;8.96;67.56;101010.19;691009;28;6927;-65
2020/12/23 00:11:24;;;;;;;10.40;2.05;;;;;;;8.97;67.77;101011.03;692914;28;13444;-65
2020/12/23 00:11:51;;;;;;;7.13;2.20;;;;;;;8.97;67.98;101009.19;692618;28;22374;-66
2020/12/23 00:12:13;;;;;;;6.63;2.08;;;;;;;8.96;67.62;101010.19;688771;28;135452;-66
2020/12/23 00:12:34;;;;;;;7.25;2.22;;;;;;;8.96;67.85;101015.56;692601;28;22406;-66
2020/12/23 00:12:55;;;;;;;7.50;2.10;;;;;;;8.97;67.47;101013.75;692074;28;44360;-66
2020/12/23 00:13:18;;;;;;;7.68;2.20;;;;;;;8.97;67.64;101011.88;693576;28;874;-65
2020/12/23 00:13:42;;;;;;;5.70;2.30;;;;;;;8.97;67.39;101016.44;692225;28;37626;-66
2020/12/23 00:14:03;;;;;;;8.02;2.40;;;;;;;8.96;67.39;101015.56;692912;28;12676;-66
2020/12/23 00:14:24;;;;;;;10.10;2.03;;;;;;;8.96;67.18;101018.25;693206;28;7271;-66
2020/12/23 00:14:46;;;;;;;9.95;2.28;;;;;;;8.96;67.33;101014.72;692645;28;23524;-66
2020/12/23 00:15:08;;;;;;;7.40;2.15;;;;;;;8.96;67.35;101012.88;691650;28;46327;-66
2020/12/23 00:15:29;;;;;;;9.07;2.22;;;;;;;8.97;67.47;101017.28;692906;28;22525;-66
2020/12/23 00:15:50;;;;;;;8.82;2.30;;;;;;;8.97;67.39;101011.88;693009;28;22207;-66
2020/12/23 00:16:12;;;;;;;8.60;2.10;;;;;;;8.97;67.39;101009.19;692319;28;37718;-66
2020/12/23 00:16:33;;;;;;;5.88;2.00;;;;;;;8.97;67.10;101011.88;692517;28;22375;-65
2020/12/23 00:16:54;;;;;;;7.22;1.90;;;;;;;8.98;67.22;101005.50;691733;28;46402;-66
2020/12/23 00:17:18;;;;;;;8.82;2.58;;;;;;;8.98;67.34;101010.03;692325;28;22327;-66
2020/12/23 00:17:39;;;;;;;8.05;2.00;;;;;;;8.97;67.15;101005.66;691354;28;68384;-65
2020/12/23 00:18:00;;;;;;;8.13;2.28;;;;;;;8.96;67.07;101006.66;691880;28;44416;-65
2020/12/23 00:18:22;;;;;;;10.80;2.40;;;;;;;8.96;67.34;101007.47;692634;28;23480;-66
2020/12/23 00:18:43;;;;;;;12.07;2.40;;;;;;;8.96;67.34;101010.19;692643;28;22397;-65
2020/12/23 00:19:04;;;;;;;8.68;2.00;;;;;;;8.95;66.94;101011.22;692909;28;21419;-65
2020/12/23 00:19:26;;;;;;;9.02;2.10;;;;;;;8.96;67.30;101015.56;692076;28;45254;-66
2020/12/23 00:19:47;;;;;;;8.20;2.13;;;;;;;8.96;67.23;101012.03;693026;28;22418;-66
2020/12/23 00:20:09;;;;;;;7.57;2.10;;;;;;;8.96;67.15;101010.19;691954;28;44838;-66
2020/12/23 00:20:30;;;;;;;7.90;2.00;;;;;;;8.95;67.28;101011.22;692490;28;22224;-66
2020/12/23 00:20:52;;;;;;;8.45;1.85;;;;;;;8.95;67.24;101002.25;692957;28;22365;-66
2020/12/23 00:21:13;;;;;;;8.18;1.83;;;;;;;8.93;67.31;100999.72;691785;28;45288;-65
2020/12/23 00:21:34;;;;;;;5.30;2.25;;;;;;;8.93;67.23;101005.09;692788;28;20252;-65
2020/12/23 00:21:55;;;;;;;9.52;2.25;;;;;;;8.93;67.54;101005.09;692883;28;22408;-66
2020/12/23 00:22:17;;;;;;;11.60;2.40;;;;;;;8.92;67.56;101002.56;690101;28;46453;-66
2020/12/23 00:22:39;;;;;;;8.93;2.20;;;;;;;8.91;67.03;101003.59;690295;28;45678;-66
2020/12/23 00:23:01;;;;;;;4.57;2.10;;;;;;;8.91;67.45;101007.13;690959;28;16133;-66
2020/12/23 00:23:22;;;;;;;8.07;2.10;;;;;;;8.91;67.67;100999.06;690156;28;45286;-66
2020/12/23 00:23:43;;;;;;;6.95;1.95;;;;;;;8.91;67.57;100999.06;691414;28;22402;-66
2020/12/23 00:24:05;;;;;;;10.37;2.30;;;;;;;8.89;67.43;100998.38;691672;28;23472;-66
2020/12/23 00:24:26;;;;;;;9.70;2.20;;;;;;;8.91;67.43;100999.06;692136;28;44386;-64
2020/12/23 00:24:47;;;;;;;9.65;2.33;;;;;;;8.90;67.45;101000.03;692876;28;22373;-66
2020/12/23 00:25:09;;;;;;;6.57;2.13;;;;;;;8.90;67.62;100997.34;691716;28;45251;-66
2020/12/23 00:25:30;;;;;;;8.95;2.50;;;;;;;8.91;67.40;101000.91;690237;28;22377;-66
2020/12/23 00:25:52;;;;;;;8.77;2.05;;;;;;;8.90;67.04;101000.03;689137;28;44362;-66
2020/12/23 00:26:13;;;;;;;8.40;2.20;;;;;;;8.90;67.27;101000.03;688816;28;21546;-66
2020/12/23 00:26:35;;;;;;;7.15;2.05;;;;;;;8.90;67.07;101004.59;691189;28;22163;-65
2020/12/23 00:26:56;;;;;;;7.40;2.42;;;;;;;8.92;67.19;101005.28;690643;28;46320;-65
2020/12/23 00:27:19;;;;;;;7.00;2.40;;;;;;;8.92;66.99;101005.28;691083;28;22412;-65
2020/12/23 00:27:40;;;;;;;6.97;2.05;;;;;;;8.91;66.81;101012.50;688467;28;69043;-66
2020/12/23 00:28:02;;;;;;;4.15;1.80;;;;;;;8.90;66.97;101002.72;690413;28;23543;-66
2020/12/23 00:28:23;;;;;;;7.40;2.30;;;;;;;8.90;67.23;101007.28;692124;28;44404;-66
2020/12/23 00:28:45;;;;;;;7.95;2.50;;;;;;;8.91;67.14;101004.44;689507;28;22416;-66
2020/12/23 00:29:06;;;;;;;8.82;2.20;;;;;;;8.91;67.14;101012.50;688863;28;46417;-65
2020/12/23 00:29:27;;;;;;;7.55;2.03;;;;;;;8.90;67.00;101010.81;689852;28;21560;-64
2020/12/23 00:29:49;;;;;;;8.43;2.10;;;;;;;8.92;67.02;101007.97;689662;28;23748;-66
2020/12/23 00:30:11;;;;;;;4.82;2.00;;;;;;;8.90;66.69;101004.59;689005;28;44657;-66
2020/12/23 00:30:33;;;;;;;5.78;2.03;;;;;;;8.89;66.88;101006.44;689396;28;52459;-65
2020/12/23 00:30:54;;;;;;;6.75;2.00;;;;;;;8.90;66.94;101008.13;692885;28;21373;-66
2020/12/23 00:31:16;;;;;;;6.85;1.98;;;;;;;8.90;67.29;101008.13;692825;28;21720;-64
2020/12/23 00:31:37;;;;;;;8.77;2.03;;;;;;;8.90;67.27;101013.50;693385;28;996;-66
2020/12/23 00:31:59;;;;;;;11.30;2.10;;;;;;;8.88;67.00;101004.75;692816;28;17538;-66
2020/12/23 00:32:20;;;;;;;6.38;1.98;;;;;;;8.89;67.15;101003.75;691825;28;46320;-66
2020/12/23 00:32:41;;;;;;;6.93;1.77;;;;;;;8.89;66.74;101008.31;693035;28;21456;-65
2020/12/23 00:33:03;;;;;;;7.47;1.83;;;;;;;8.88;66.81;101003.91;693488;28;6364;-66
2020/12/23 00:33:24;;;;;;;8.55;2.20;;;;;;;8.86;66.93;101006.78;692839;28;21616;-66
2020/12/23 00:33:46;;;;;;;8.90;2.30;;;;;;;8.87;66.94;101004.91;691739;28;45250;-66
2020/12/23 00:34:07;;;;;;;9.95;2.35;;;;;;;8.87;66.71;101002.22;691750;28;46312;-66
2020/12/23 00:34:28;;;;;;;8.55;2.08;;;;;;;8.87;66.57;101004.91;692708;28;22399;-65
2020/12/23 00:34:49;;;;;;;7.25;2.10;;;;;;;8.87;66.72;100999.53;692618;28;22550;-62
2020/12/23 00:35:11;;;;;;;7.95;2.03;;;;;;;8.88;66.67;100993.16;692665;28;23448;-65
2020/12/23 00:35:32;;;;;;;8.25;2.08;;;;;;;8.88;66.71;100998.53;692097;28;45440;-66
2020/12/23 00:35:54;;;;;;;10.27;2.05;;;;;;;8.86;66.81;100997.84;692976;28;23473;-66
2020/12/23 00:36:15;;;;;;;6.90;2.22;;;;;;;8.85;66.62;100988.91;692029;28;46322;-66
2020/12/23 00:36:37;;;;;;;4.00;2.10;;;;;;;8.85;66.61;100988.91;692902;28;21539;-66
2020/12/23 00:36:59;;;;;;;4.68;1.90;;;;;;;8.84;66.69;100993.47;691694;28;46425;-66
2020/12/23 00:37:21;;;;;;;9.25;2.20;;;;;;;8.84;66.25;100993.47;691844;28;46343;-66
2020/12/23 00:37:42;;;;;;;9.40;1.90;;;;;;;8.83;66.64;100983.69;692114;28;47865;-66
2020/12/23 00:38:05;;;;;;;7.10;2.03;;;;;;;8.84;66.74;100992.63;692491;28;22335;-65
2020/12/23 00:38:26;;;;;;;7.18;2.30;;;;;;;8.84;66.94;100989.94;691128;28;69401;-66
2020/12/23 00:38:48;;;;;;;8.45;2.28;;;;;;;8.83;67.04;100986.38;692913;28;22400;-64
2020/12/23 00:39:09;;;;;;;9.27;2.20;;;;;;;8.84;67.07;100995.31;689269;28;23563;-66
2020/12/23 00:39:31;;;;;;;6.63;1.98;;;;;;;8.83;66.81;100999.84;689062;28;45192;-66
2020/12/23 00:39:52;;;;;;;9.23;1.98;;;;;;;8.84;66.68;100995.31;689717;28;23484;-66
2020/12/23 00:40:13;;;;;;;10.38;2.40;;;;;;;8.83;67.11;100999.84;688787;28;44407;-66
2020/12/23 00:40:34;;;;;;;7.80;2.05;;;;;;;8.83;66.91;100997.16;689316;28;21360;-65
2020/12/23 00:40:56;;;;;;;6.28;2.22;;;;;;;8.83;67.08;101005.22;690554;28;23414;-64
2020/12/23 00:41:18;;;;;;;10.00;2.42;;;;;;;8.83;66.88;101004.41;691956;28;46336;-66
2020/12/23 00:41:43;;;;;;;7.03;2.15;;;;;;;8.81;66.51;101001.84;693122;28;9973;-66
2020/12/23 00:42:04;;;;;;;8.68;2.20;;;;;;;8.80;66.66;101004.72;688642;28;137629;-66
2020/12/23 00:42:27;;;;;;;5.30;2.20;;;;;;;8.81;66.42;101011.81;691938;28;46332;-65
2020/12/23 00:42:48;;;;;;;4.93;2.08;;;;;;;8.81;66.61;101011.81;692740;28;22392;-66
2020/12/23 00:43:09;;;;;;;5.25;2.17;;;;;;;8.80;66.70;101005.53;691944;28;46409;-65
2020/12/23 00:43:30;;;;;;;7.25;2.33;;;;;;;8.80;66.50;101013.63;692885;28;23476;-66
2020/12/23 00:43:52;;;;;;;6.97;2.10;;;;;;;8.80;66.28;101005.53;691976;28;22230;-64
2020/12/23 00:44:14;;;;;;;7.45;2.40;;;;;;;8.79;66.81;101020.03;691733;28;46546;-66
2020/12/23 00:44:35;;;;;;;8.60;2.47;;;;;;;8.79;66.73;101006.56;692827;28;17962;-64
2020/12/23 00:44:58;;;;;;;6.75;2.20;;;;;;;8.79;66.83;101011.97;692254;28;39797;-66
2020/12/23 00:45:19;;;;;;;9.63;2.40;;;;;;;8.79;67.08;101009.25;690731;28;46399;-66
2020/12/23 00:45:41;;;;;;;8.48;2.03;;;;;;;8.80;67.34;101020.88;692265;28;34546;-65
2020/12/23 00:46:02;;;;;;;8.40;2.10;;;;;;;8.80;66.88;101020.88;689055;28;23470;-66
2020/12/23 00:46:24;;;;;;;8.35;2.33;;;;;;;8.80;66.65;101020.88;689169;28;45272;-65
2020/12/23 00:46:45;;;;;;;10.70;2.58;;;;;;;8.79;66.63;101016.47;686403;28;22491;-66
2020/12/23 00:47:07;;;;;;;7.55;2.25;;;;;;;8.79;66.73;101013.78;685960;28;45701;-66
2020/12/23 00:47:29;;;;;;;10.57;2.38;;;;;;;8.79;66.92;101009.25;683175;28;45254;-65
2020/12/23 00:47:50;;;;;;;9.57;2.20;;;;;;;8.78;66.71;101021.03;684442;28;46458;-65
2020/12/23 00:48:11;;;;;;;8.70;2.35;;;;;;;8.79;66.73;101009.25;687070;28;21529;-65
2020/12/23 00:48:33;;;;;;;9.82;2.38;;;;;;;8.78;66.42;101020.19;687286;28;22397;-66
2020/12/23 00:48:54;;;;;;;8.52;2.08;;;;;;;8.78;66.47;101018.34;687454;28;22192;-64
2020/12/23 00:49:16;;;;;;;5.70;1.70;;;;;;;8.77;66.77;101018.50;688604;28;46385;-66
2020/12/23 00:49:37;;;;;;;5.35;1.83;;;;;;;8.78;66.76;101025.59;690339;28;23481;-66
2020/12/23 00:49:58;;;;;;;8.07;2.10;;;;;;;8.77;66.44;101023.88;689351;28;22479;-65
2020/12/23 00:50:20;;;;;;;9.02;1.90;;;;;;;8.76;66.45;101024.88;688359;28;44340;-65
2020/12/23 00:50:41;;;;;;;6.37;2.07;;;;;;;8.78;66.77;101031.81;689179;28;46347;-65
2020/12/23 00:51:07;;;;;;;5.25;1.98;;;;;;;8.78;66.69;101028.28;689101;28;46391;-66
2020/12/23 00:51:28;;;;;;;9.45;2.17;;;;;;;8.76;66.80;101031.13;686464;28;138292;-66
2020/12/23 00:51:50;;;;;;;8.18;2.10;;;;;;;8.77;66.92;101034.66;691167;28;44167;-66
2020/12/23 00:52:12;;;;;;;5.63;2.22;;;;;;;8.78;67.02;101031.81;690826;28;46513;-66
2020/12/23 00:52:33;;;;;;;10.88;2.30;;;;;;;8.79;67.08;101032.63;691840;28;23215;-65
2020/12/23 00:52:55;;;;;;;13.77;2.28;;;;;;;8.78;67.11;101036.34;691639;28;45235;-65
2020/12/23 00:53:17;;;;;;;7.70;1.90;;;;;;;8.78;66.95;101039.03;692165;28;21351;-65
2020/12/23 00:53:39;;;;;;;5.00;2.22;;;;;;;8.78;66.70;101037.19;690312;28;69495;-65
2020/12/23 00:54:00;;;;;;;10.35;2.15;;;;;;;8.78;66.49;101033.66;689521;28;22420;-63
2020/12/23 00:54:22;;;;;;;7.35;2.20;;;;;;;8.78;66.34;101033.66;684964;28;45087;-65
2020/12/23 00:54:44;;;;;;;7.53;2.20;;;;;;;8.78;66.44;101028.28;681094;29;44190;-66
2020/12/23 00:55:13;;;;;;;6.60;2.20;;;;;;;8.78;66.26;101030.97;675400;29;137987;-66
2020/12/23 00:55:35;;;;;;;5.72;1.90;;;;;;;8.78;66.73;101031.81;683501;28;46084;-65
2020/12/23 00:55:56;;;;;;;7.60;2.10;;;;;;;8.78;66.72;101031.81;686224;28;21339;-65
2020/12/23 00:56:19;;;;;;;8.95;2.30;;;;;;;8.77;66.58;101029.25;688782;28;21511;-65
2020/12/23 00:56:40;;;;;;;8.05;2.50;;;;;;;8.78;66.37;101039.03;687213;28;92374;-66
2020/12/23 00:57:03;;;;;;;10.50;2.33;;;;;;;8.76;66.64;101031.13;688898;28;46340;-65
2020/12/23 00:57:24;;;;;;;7.22;2.00;;;;;;;8.79;66.53;101028.13;689983;28;46428;-65
2020/12/23 00:57:45;;;;;;;6.55;2.20;;;;;;;8.78;66.40;101039.88;692624;28;23573;-66
2020/12/23 00:58:07;;;;;;;6.45;2.20;;;;;;;8.78;66.14;101036.34;691789;28;46395;-66
2020/12/23 00:58:28;;;;;;;6.13;1.95;;;;;;;8.78;65.99;101033.66;692395;28;22179;-65
2020/12/23 00:58:49;;;;;;;6.78;2.10;;;;;;;8.78;65.89;101033.66;691764;28;46180;-66
2020/12/23 00:59:11;;;;;;;9.32;2.22;;;;;;;8.78;66.19;101039.88;692455;28;21560;-67
2020/12/23 00:59:33;;;;;;;10.48;2.40;;;;;;;8.78;66.25;101039.88;692612;28;22422;-65
2020/12/23 00:59:54;;;;;;;11.27;2.53;;;;;;;8.79;66.42;101038.03;692079;28;46329;-66
2020/12/23 01:00:15;;;;;;;8.35;2.05;;;;;;;8.79;66.35;101040.72;692767;28;23392;-66
2020/12/23 01:00:36;;;;;;;4.15;1.77;;;;;;;8.79;66.03;101035.34;692544;28;16949;-64
2020/12/23 01:00:58;;;;;;;6.18;1.73;;;;;;;8.77;65.72;101032.78;692850;28;4556;-65
2020/12/23 01:01:19;;;;;;;10.57;2.40;;;;;;;8.78;65.98;101030.97;691717;28;45640;-66
2020/12/23 01:01:41;;;;;;;5.78;2.13;;;;;;;8.79;66.00;101028.13;693173;28;4797;-65
2020/12/23 01:02:03;;;;;;;7.28;2.20;;;;;;;8.79;66.15;101038.88;692862;28;21813;-64
2020/12/23 01:02:24;;;;;;;6.10;2.00;;;;;;;8.80;66.00;101028.94;691905;28;46322;-65
2020/12/23 01:02:45;;;;;;;10.95;2.25;;;;;;;8.79;65.99;101032.63;693277;28;3398;-66
2020/12/23 01:03:07;;;;;;;12.70;2.30;;;;;;;8.78;65.91;101028.28;691862;28;45271;-65
2020/12/23 01:03:28;;;;;;;6.70;2.13;;;;;;;8.77;65.53;101021.19;692529;28;22307;-66
2020/12/23 01:03:50;;;;;;;8.50;2.17;;;;;;;8.78;65.67;101025.59;692542;28;22401;-66
2020/12/23 01:04:11;;;;;;;7.25;2.33;;;;;;;8.78;65.64;101030.97;691684;28;46327;-66
2020/12/23 01:04:33;;;;;;;5.85;2.15;;;;;;;8.77;65.75;101022.03;692473;28;22415;-65
2020/12/23 01:04:54;;;;;;;6.20;2.47;;;;;;;8.79;65.77;101021.88;691947;28;44362;-66
2020/12/23 01:05:15;;;;;;;7.18;2.40;;;;;;;8.76;65.75;101028.44;692594;28;21362;-66
2020/12/23 01:05:36;;;;;;;6.65;1.95;;;;;;;8.77;65.66;101021.19;692821;28;22332;-66
2020/12/23 01:05:58;;;;;;;7.30;2.38;;;;;;;8.76;65.29;101017.66;692846;28;23464;-66
2020/12/23 01:06:19;;;;;;;7.35;2.00;;;;;;;8.76;65.36;101019.50;691604;28;46392;-65
2020/12/23 01:06:40;;;;;;;6.63;2.17;;;;;;;8.76;65.18;101022.19;692319;28;23414;-66
2020/12/23 01:07:02;;;;;;;5.28;2.13;;;;;;;8.75;65.11;101031.28;691323;28;44334;-64
2020/12/23 01:07:24;;;;;;;8.82;2.30;;;;;;;8.74;64.84;101027.72;692688;28;22210;-66
2020/12/23 01:07:45;;;;;;;7.30;2.50;;;;;;;8.75;65.30;101025.91;692072;28;44395;-65
2020/12/23 01:08:06;;;;;;;6.38;2.30;;;;;;;8.74;65.22;101024.19;692808;28;21539;-66
2020/12/23 01:08:28;;;;;;;5.13;2.22;;;;;;;8.75;65.42;101025.91;692964;28;22337;-66
2020/12/23 01:08:50;;;;;;;9.05;2.25;;;;;;;8.73;65.01;101025.19;691539;28;46366;-66
2020/12/23 01:09:11;;;;;;;6.95;2.08;;;;;;;8.74;65.21;101029.59;692039;28;34957;-66
2020/12/23 01:09:32;;;;;;;7.53;2.10;;;;;;;8.72;65.33;101027.03;692590;28;22399;-65
2020/12/23 01:09:53;;;;;;;6.18;2.20;;;;;;;8.73;65.13;101031.44;692871;28;23485;-65
2020/12/23 01:10:15;;;;;;;7.05;2.13;;;;;;;8.72;65.53;101028.91;691902;28;45249;-64
2020/12/23 01:10:36;;;;;;;6.28;2.17;;;;;;;8.73;65.85;101025.19;692445;28;21360;-66
2020/12/23 01:10:58;;;;;;;6.88;2.30;;;;;;;8.73;65.59;101036.81;692865;28;17279;-65
2020/12/23 01:11:19;;;;;;;7.65;2.30;;;;;;;8.73;65.70;101035.97;692713;28;21399;-65
2020/12/23 01:11:41;;;;;;;6.60;2.00;;;;;;;8.74;65.62;101034.97;692820;28;10167;-66
2020/12/23 01:12:02;;;;;;;7.65;2.05;;;;;;;8.73;65.94;101034.13;691916;28;40599;-66
2020/12/23 01:12:23;;;;;;;7.15;2.10;;;;;;;8.73;65.68;101033.25;692491;28;22480;-65
2020/12/23 01:12:45;;;;;;;7.75;2.33;;;;;;;8.73;65.74;101033.25;692937;28;22396;-65
2020/12/23 01:13:06;;;;;;;7.35;1.98;;;;;;;8.72;65.42;101035.13;691843;28;45219;-65
2020/12/23 01:13:28;;;;;;;7.07;1.85;;;;;;;8.72;65.53;101031.59;692773;28;22396;-65
2020/12/23 01:13:49;;;;;;;8.10;2.53;;;;;;;8.72;65.09;101032.44;692829;28;22483;-65
2020/12/23 01:14:10;;;;;;;10.18;2.55;;;;;;;8.72;64.79;101040.50;691973;28;46337;-66
2020/12/23 01:14:31;;;;;;;6.45;1.92;;;;;;;8.71;64.95;101033.41;692828;28;21676;-66
2020/12/23 01:14:53;;;;;;;6.60;1.83;;;;;;;8.71;64.79;101033.41;692414;28;21336;-65
2020/12/23 01:15:14;;;;;;;6.00;2.05;;;;;;;8.72;64.74;101026.22;690920;28;40094;-66
2020/12/23 01:15:35;;;;;;;6.93;2.30;;;;;;;8.71;64.90;101037.97;692163;28;22411;-65
2020/12/23 01:15:57;;;;;;;3.53;1.83;;;;;;;8.71;64.82;101027.19;692396;28;22376;-66
2020/12/23 01:16:19;;;;;;;5.97;1.85;;;;;;;8.71;64.91;101032.59;688301;28;44376;-66
2020/12/23 01:16:41;;;;;;;7.10;2.20;;;;;;;8.72;65.09;101034.28;688476;28;46390;-66
2020/12/23 01:17:02;;;;;;;7.45;1.98;;;;;;;8.72;65.21;101029.75;688425;28;44420;-65
2020/12/23 01:17:24;;;;;;;7.32;1.90;;;;;;;8.72;64.85;101037.81;689640;28;22337;-66
2020/12/23 01:17:45;;;;;;;9.07;2.42;;;;;;;8.72;65.35;101037.81;689032;28;45322;-65
2020/12/23 01:18:06;;;;;;;10.10;2.22;;;;;;;8.72;65.26;101034.28;690320;28;22413;-66
2020/12/23 01:18:28;;;;;;;12.45;2.28;;;;;;;8.73;64.83;101030.56;692688;28;22369;-66
2020/12/23 01:18:50;;;;;;;7.15;1.90;;;;;;;8.75;64.94;101033.97;691880;28;46245;-66
2020/12/23 01:19:11;;;;;;;9.38;2.03;;;;;;;8.72;65.13;101027.03;691393;28;44600;-65
2020/12/23 01:19:33;;;;;;;8.13;1.95;;;;;;;8.73;64.78;101030.56;692678;28;20014;-65
2020/12/23 01:19:54;;;;;;;7.43;2.20;;;;;;;8.73;64.86;101034.13;691970;28;46260;-65
2020/12/23 01:20:16;;;;;;;8.52;2.05;;;;;;;8.73;64.58;101025.19;692378;28;22326;-65
2020/12/23 01:20:37;;;;;;;9.60;2.00;;;;;;;8.73;65.03;101035.97;691688;28;43430;-66
2020/12/23 01:20:58;;;;;;;10.50;2.00;;;;;;;8.73;64.90;101034.13;693163;28;1939;-66
2020/12/23 01:21:20;;;;;;;8.10;2.30;;;;;;;8.71;64.78;101032.59;692392;28;22458;-66
2020/12/23 01:21:43;;;;;;;8.18;2.22;;;;;;;8.71;64.89;101030.72;691872;28;40145;-65
2020/12/23 01:22:04;;;;;;;9.02;2.35;;;;;;;8.71;64.76;101025.34;691174;28;67495;-65
2020/12/23 01:22:25;;;;;;;7.03;2.15;;;;;;;8.71;64.72;101027.19;692999;28;17641;-65
2020/12/23 01:22:47;;;;;;;8.57;1.98;;;;;;;8.71;64.71;101027.19;689754;28;23409;-65
2020/12/23 01:23:08;;;;;;;5.40;1.83;;;;;;;8.70;64.91;101033.59;688603;28;46445;-66
2020/12/23 01:23:30;;;;;;;5.95;2.03;;;;;;;8.70;64.90;101034.44;689603;28;14355;-65
2020/12/23 01:23:52;;;;;;;8.85;2.22;;;;;;;8.69;64.94;101029.22;688894;28;46358;-65
2020/12/23 01:24:13;;;;;;;9.13;1.70;;;;;;;8.69;65.24;101027.34;689681;28;21333;-66
2020/12/23 01:24:35;;;;;;;7.28;1.95;;;;;;;8.69;65.04;101030.06;689345;28;46387;-66
2020/12/23 01:24:56;;;;;;;5.63;1.73;;;;;;;8.68;64.86;101022.97;692475;28;22396;-66
2020/12/23 01:25:17;;;;;;;6.20;2.28;;;;;;;8.68;64.78;101028.34;691458;28;46520;-66
2020/12/23 01:25:38;;;;;;;7.80;2.45;;;;;;;8.67;64.99;101026.69;693002;28;9233;-66
2020/12/23 01:26:00;;;;;;;5.85;2.13;;;;;;;8.69;65.31;101029.22;693519;28;802;-65
2020/12/23 01:26:21;;;;;;;8.27;2.10;;;;;;;8.69;65.05;101029.22;691992;28;44291;-65
2020/12/23 01:26:43;;;;;;;7.00;2.00;;;;;;;8.67;64.98;101026.69;692802;28;19308;-66
2020/12/23 01:27:04;;;;;;;7.82;2.22;;;;;;;8.69;65.41;101030.06;693216;28;9100;-65
2020/12/23 01:27:25;;;;;;;10.77;2.28;;;;;;;8.67;64.98;101024.00;692981;28;898;-65
2020/12/23 01:27:47;;;;;;;7.72;2.50;;;;;;;8.68;65.41;101022.13;692599;28;1507;-66
2020/12/23 01:28:09;;;;;;;7.85;2.15;;;;;;;8.68;65.33;101024.81;693164;28;902;-65
2020/12/23 01:28:30;;;;;;;5.07;1.98;;;;;;;8.68;65.38;101025.66;692170;28;38352;-66
2020/12/23 01:28:51;;;;;;;6.60;2.10;;;;;;;8.69;65.14;101029.22;692785;28;21362;-64
2020/12/23 01:29:13;;;;;;;6.57;2.15;;;;;;;8.68;65.16;101017.59;689905;28;14147;-65
2020/12/23 01:29:34;;;;;;;10.25;2.30;;;;;;;8.68;64.82;101020.28;688825;28;46237;-64
2020/12/23 01:29:56;;;;;;;10.93;2.00;;;;;;;8.68;64.96;101020.28;689221;28;23577;-65
2020/12/23 01:30:17;;;;;;;9.52;2.20;;;;;;;8.68;65.05;101022.97;689308;28;22056;-66
2020/12/23 01:30:38;;;;;;;10.38;2.35;;;;;;;8.68;64.73;101024.81;689216;28;23550;-66
2020/12/23 01:31:00;;;;;;;9.63;2.33;;;;;;;8.69;64.73;101023.84;689436;28;44394;-66
2020/12/23 01:31:21;;;;;;;7.57;2.10;;;;;;;8.68;65.06;101020.28;692659;28;23469;-66
2020/12/23 01:31:42;;;;;;;9.27;2.30;;;;;;;8.68;64.75;101028.34;691759;28;44603;-66
2020/12/23 01:32:04;;;;;;;8.52;2.15;;;;;;;8.66;64.99;101028.50;692741;28;22425;-65
2020/12/23 01:32:25;;;;;;;7.50;1.95;;;;;;;8.66;64.74;101025.81;692742;28;21545;-66
2020/12/23 01:32:46;;;;;;;10.77;2.28;;;;;;;8.66;64.65;101027.69;692284;28;22497;-66
2020/12/23 01:33:09;;;;;;;5.72;2.00;;;;;;;8.65;64.42;101023.28;693408;28;891;-66
2020/12/23 01:33:30;;;;;;;6.93;1.77;;;;;;;8.65;64.61;101023.28;691874;28;45678;-65
2020/12/23 01:33:52;;;;;;;9.57;2.25;;;;;;;8.64;64.74;101024.31;692596;28;22372;-65
2020/12/23 01:34:13;;;;;;;7.47;2.60;;;;;;;8.64;65.04;101024.31;691842;28;46314;-66
2020/12/23 01:34:34;;;;;;;7.85;2.42;;;;;;;8.64;64.75;101025.13;693059;28;13032;-65
2020/12/23 01:34:56;;;;;;;8.43;2.03;;;;;;;8.64;64.79;101019.75;693017;28;13621;-65
2020/12/23 01:35:17;;;;;;;9.30;2.20;;;;;;;8.64;65.23;101027.00;692222;28;22235;-66
2020/12/23 01:35:39;;;;;;;9.05;2.20;;;;;;;8.64;65.32;101021.63;692832;28;14491;-65
2020/12/23 01:36:00;;;;;;;6.55;1.83;;;;;;;8.63;65.03;101028.00;691805;28;42688;-66
2020/12/23 01:36:22;;;;;;;7.90;2.10;;;;;;;8.62;64.99;101021.78;692753;28;22127;-66
2020/12/23 01:36:47;;;;;;;8.88;2.28;;;;;;;8.62;64.81;101023.59;692620;28;21588;-66
2020/12/23 01:37:09;;;;;;;10.88;2.13;;;;;;;8.61;64.60;101019.22;688437;28;138161;-65
2020/12/23 01:37:30;;;;;;;8.18;2.20;;;;;;;8.60;64.50;101021.06;691882;28;44730;-66
2020/12/23 01:37:52;;;;;;;9.75;2.45;;;;;;;8.60;64.76;101020.22;692626;28;21609;-65
2020/12/23 01:38:13;;;;;;;8.13;2.10;;;;;;;8.60;64.80;101017.53;692462;28;23431;-64
2020/12/23 01:38:35;;;;;;;13.02;2.10;;;;;;;8.60;64.79;101018.38;692660;28;22422;-65
2020/12/23 01:38:57;;;;;;;9.27;2.03;;;;;;;8.57;64.40;101015.16;691199;28;66451;-65
2020/12/23 01:39:18;;;;;;;6.40;2.10;;;;;;;8.58;64.54;101016.84;693227;28;891;-66
2020/12/23 01:39:40;;;;;;;5.57;2.20;;;;;;;8.57;64.64;101010.59;693448;28;1121;-65
2020/12/23 01:40:02;;;;;;;4.60;1.80;;;;;;;8.56;64.68;101006.25;692606;28;21300;-65
2020/12/23 01:40:23;;;;;;;6.88;2.05;;;;;;;8.56;64.53;101008.09;691623;28;46310;-66
2020/12/23 01:40:45;;;;;;;7.75;2.10;;;;;;;8.56;64.74;101011.63;691163;28;46417;-65
2020/12/23 01:41:06;;;;;;;9.18;2.17;;;;;;;8.56;65.10;101008.94;692752;28;21535;-66
2020/12/23 01:41:28;;;;;;;5.90;1.95;;;;;;;8.54;64.97;101010.94;691944;28;45248;-66
2020/12/23 01:41:55;;;;;;;7.60;1.95;;;;;;;8.56;65.18;101008.94;693153;28;11330;-66
2020/12/23 01:42:17;;;;;;;6.70;2.00;;;;;;;8.57;65.15;101005.22;688340;28;137754;-66
2020/12/23 01:42:38;;;;;;;8.10;1.83;;;;;;;8.57;64.99;101007.91;692418;28;21550;-66
2020/12/23 01:42:59;;;;;;;8.88;2.15;;;;;;;8.55;65.01;100996.47;691603;28;46468;-66